Home > Products > Valid Products > TAF

000
FTUS41 KPHI 230900 AAA
TAFPHL
TAF AMD
KPHL 230902Z 2309/2412 32014G22KT P6SM -RA SCT015 OVC025
      TEMPO 2309/2313 SCT025 BKN035
     FM231300 32017G30KT P6SM SCT025 OVC035
      TEMPO 2314/2317 P6SM -RA OVC025
     FM231700 33017G30KT P6SM OVC035
     FM232100 33015G24KT P6SM SCT025 OVC035
     FM240300 33012KT P6SM SCT030 OVC050=



000
FTUS41 KPHI 230800 AAA
TAFTTN
TAF AMD
KTTN 230804Z 2308/2406 35015G23KT P6SM -RA OVC025
      TEMPO 2309/2312 OVC015
     FM231600 35017G30KT P6SM OVC025
      TEMPO 2316/2318 P6SM -RA OVC015
     FM232100 34012G21KT P6SM SCT025 OVC050
     FM240300 33012KT P6SM SCT030 OVC050=



000
FTUS41 KPHI 230800 AAA
TAFTTN
TAF AMD
KTTN 230804Z 2308/2406 35015G23KT P6SM -RA OVC025
      TEMPO 2309/2312 OVC015
     FM231600 35017G30KT P6SM OVC025
      TEMPO 2316/2318 P6SM -RA OVC015
     FM232100 34012G21KT P6SM SCT025 OVC050
     FM240300 33012KT P6SM SCT030 OVC050=



000
FTUS41 KPHI 230500 CCA
TAFPNE
TAF COR
KPNE 230559Z 2306/2406 32014G22KT P6SM -RA SCT015 OVC025
     FM231400 32017G30KT P6SM OVC025
      TEMPO 2314/2317 P6SM -RA OVC015
     FM232100 34015G24KT P6SM SCT025 OVC050
     FM240300 33012KT P6SM SCT030 OVC050=



000
FTUS41 KPHI 230500 CCA
TAFPHL
TAF COR
KPHL 230559Z 2306/2412 32014G22KT P6SM -RA SCT015 OVC025
     FM231400 32017G30KT P6SM SCT025 OVC035
      TEMPO 2314/2317 P6SM -RA OVC025
     FM231700 33017G30KT P6SM OVC035
     FM232100 33015G24KT P6SM SCT025 OVC035
     FM240300 33012KT P6SM SCT030 OVC050=



000
FTUS41 KPHI 230500 CCA
TAFMIV
TAF COR
KMIV 230547Z 2306/2406 34012G22KT P6SM -RA SCT015 OVC035
      TEMPO 2306/2310 BKN025
     FM231400 32017G25KT P6SM SCT025 OVC040
     FM231900 32014G25KT P6SM SCT025 OVC050
     FM240300 32010KT P6SM SCT030 OVC050=



000
FTUS41 KPHI 230500
TAFILG
TAF
KILG 230533Z 2306/2406 32014G22KT P6SM -RA SCT025 OVC040
     FM231400 33017G30KT P6SM BKN025 OVC035
     FM231700 32015G30KT P6SM SCT025 OVC035
     FM240300 33012KT P6SM SCT030 OVC050=



000
FTUS41 KPHI 230500
TAFMIV
TAF
KMIV 230533Z 2306/2406 34012G22KT P6SM -RA SCT015 OVC035
     FM231400 32017G25KT P6SM SCT025 OVC040
     FM231900 32014G25KT P6SM SCT025 OVC050
     FM240300 32010KT P6SM SCT030 OVC050=



000
FTUS41 KPHI 230500
TAFACY
TAF
KACY 230533Z 2306/2406 33016G25KT P6SM -RA BKN015 OVC025
     FM231900 32015G25KT P6SM SCT025 OVC050
     FM240300 33012KT P6SM SCT030 OVC050=



000
FTUS41 KPHI 230500
TAFPHL
TAF
KPHL 230533Z 2306/2412 34014G22KT P6SM -RA SCT025 OVC040
     FM230800 32014G22KT P6SM -RA SCT015 OVC025
     FM231400 32017G30KT P6SM SCT025 OVC035
      TEMPO 2314/2317 P6SM -RA OVC025
     FM231700 33017G30KT P6SM OVC035
     FM232100 33015G24KT P6SM SCT025 OVC035
     FM240300 33012KT P6SM SCT030 OVC050=



000
FTUS41 KPHI 230500
TAFABE
TAF
KABE 230533Z 2306/2406 33016G24KT P6SM -RA SCT025 OVC045
     FM230900 33015G23KT P6SM -RA SCT015 OVC025
     FM231400 34017G28KT P6SM OVC025
      TEMPO 2314/2318 P6SM -RA OVC015
     FM232100 34016G24KT P6SM SCT025 OVC050
     FM240200 33010KT P6SM SCT025 OVC050=



000
FTUS41 KPHI 230500
TAFPNE
TAF
KPNE 230533Z 2306/2406 34014G22KT P6SM -RA SCT025 OVC040
     FM230800 32014G22KT P6SM -RA SCT015 OVC025
     FM231400 32017G30KT P6SM OVC025
      TEMPO 2314/2317 P6SM -RA OVC015
     FM232100 34015G24KT P6SM SCT025 OVC050
     FM240300 33012KT P6SM SCT030 OVC050=



000
FTUS41 KPHI 230500
TAFRDG
TAF
KRDG 230533Z 2306/2406 33015G23KT P6SM -RA SCT015 OVC025
     FM231400 33017G28KT P6SM SCT015 OVC025
      TEMPO 2314/2316 6SM -RA OVC015
     FM232000 34017G23KT P6SM SCT025 OVC050
     FM240200 33010KT P6SM SCT025 OVC050=



000
FTUS41 KPHI 230500
TAFTTN
TAF
KTTN 230533Z 2306/2406 01015G23KT 6SM -RA SCT015 OVC025
     FM230800 35015G23KT P6SM -RA OVC015
     FM231600 35017G30KT P6SM OVC025
      TEMPO 2316/2318 P6SM -RA OVC015
     FM232100 34012G21KT P6SM SCT025 OVC050
     FM240300 33012KT P6SM SCT030 OVC050=



000
FTUS41 KPHI 230100 AAA
TAFMIV
TAF AMD
KMIV 230102Z 2301/2324 33014G23KT 6SM -RA SCT015 OVC025
     FM230300 33016G25KT P6SM -SHRA BKN015 OVC025
     FM231400 32017G25KT P6SM BKN025 OVC035
     FM231900 32015G25KT P6SM SCT025 OVC050=



000
FTUS41 KPHI 230100 AAA
TAFMIV
TAF AMD
KMIV 230102Z 2301/2324 33014G23KT 6SM -RA SCT015 OVC025
     FM230300 33016G25KT P6SM -SHRA BKN015 OVC025
     FM231400 32017G25KT P6SM BKN025 OVC035
     FM231900 32015G25KT P6SM SCT025 OVC050=



000
FTUS41 KPHI 230100 AAA
TAFRDG
TAF AMD
KRDG 230101Z 2301/2324 34015G25KT P6SM -SHRA SCT015 OVC030
     FM230200 33015G23KT P6SM -SHRA SCT015 OVC030
     FM231400 33017G28KT P6SM OVC025 PROB30 2314/2316 6SM -RA OVC015
     FM232000 34017G23KT P6SM SCT025 OVC050=



000
FTUS41 KPHI 230100 AAA
TAFRDG
TAF AMD
KRDG 230101Z 2301/2324 34015G25KT P6SM -SHRA SCT015 OVC030
     FM230200 33015G23KT P6SM -SHRA SCT015 OVC030
     FM231400 33017G28KT P6SM OVC025 PROB30 2314/2316 6SM -RA OVC015
     FM232000 34017G23KT P6SM SCT025 OVC050=



000
FTUS41 KPHI 230100 AAA
TAFABE
TAF AMD
KABE 230101Z 2301/2324 34010G20KT P6SM -SHRA SCT015 OVC030
     FM230200 33016G24KT P6SM -SHRA SCT015 OVC030
     FM231400 34017G28KT P6SM OVC025 PROB30 2314/2318 P6SM -RA
      OVC015
     FM232100 34016G24KT P6SM SCT025 OVC050=



000
FTUS41 KPHI 230100 AAA
TAFABE
TAF AMD
KABE 230101Z 2301/2324 34010G20KT P6SM -SHRA SCT015 OVC030
     FM230200 33016G24KT P6SM -SHRA SCT015 OVC030
     FM231400 34017G28KT P6SM OVC025 PROB30 2314/2318 P6SM -RA
      OVC015
     FM232100 34016G24KT P6SM SCT025 OVC050=



000
FTUS41 KPHI 230100 AAA
TAFPNE
TAF AMD
KPNE 230100Z 2301/2324 35016G24KT 6SM -RA BR SCT015 OVC030
     FM230300 34014G22KT P6SM -SHRA OVC030
     FM231400 32017G30KT P6SM OVC025 PROB30 2314/2317 P6SM -RA
      OVC015
     FM231700 33017G30KT P6SM OVC025 PROB30 2317/2321 P6SM -RA
      OVC015
     FM232100 34015G24KT P6SM SCT025 OVC050=



000
FTUS41 KPHI 230100 AAA
TAFTTN
TAF AMD
KTTN 230100Z 2301/2324 35016G24KT 6SM -RA BR SCT015 OVC030
     FM230300 36014G22KT 4SM -RA BR SCT015 OVC025
     FM230600 01015G23KT 6SM -SHRA OVC015
     FM230800 36015G23KT P6SM -SHRA OVC015
     FM231600 36017G30KT P6SM OVC025 PROB30 2316/2318 P6SM -RA
      OVC015
     FM232100 36012G21KT P6SM SCT025 OVC050=



000
FTUS41 KPHI 230100 AAA
TAFPNE
TAF AMD
KPNE 230100Z 2301/2324 35016G24KT 6SM -RA BR SCT015 OVC030
     FM230300 34014G22KT P6SM -SHRA OVC030
     FM231400 32017G30KT P6SM OVC025 PROB30 2314/2317 P6SM -RA
      OVC015
     FM231700 33017G30KT P6SM OVC025 PROB30 2317/2321 P6SM -RA
      OVC015
     FM232100 34015G24KT P6SM SCT025 OVC050=



000
FTUS41 KPHI 230100 AAA
TAFTTN
TAF AMD
KTTN 230100Z 2301/2324 35016G24KT 6SM -RA BR SCT015 OVC030
     FM230300 36014G22KT 4SM -RA BR SCT015 OVC025
     FM230600 01015G23KT 6SM -SHRA OVC015
     FM230800 36015G23KT P6SM -SHRA OVC015
     FM231600 36017G30KT P6SM OVC025 PROB30 2316/2318 P6SM -RA
      OVC015
     FM232100 36012G21KT P6SM SCT025 OVC050=



000
FTUS41 KPHI 230000 AAA
TAFPHL
TAF AMD
KPHL 230059Z 2301/2406 34015G24KT 6SM -RA SCT015 OVC030
     FM230300 34014G22KT P6SM -SHRA OVC030
     FM231400 32017G30KT P6SM BKN025 OVC035 PROB30 2314/2317 P6SM
      -RA OVC015
     FM231700 33017G30KT P6SM OVC035
     FM232100 33015G24KT P6SM SCT025 OVC035=



000
FTUS41 KPHI 230000 AAA
TAFPHL
TAF AMD
KPHL 230059Z 2301/2406 34015G24KT 6SM -RA SCT015 OVC030
     FM230300 34014G22KT P6SM -SHRA OVC030
     FM231400 32017G30KT P6SM BKN025 OVC035 PROB30 2314/2317 P6SM
      -RA OVC015
     FM231700 33017G30KT P6SM OVC035
     FM232100 33015G24KT P6SM SCT025 OVC035=



000
FTUS41 KPHI 222300 RRA
TAFTTN
TAF
KTTN 222346Z 2300/2324 36016G24KT 6SM -RA BR SCT015 OVC030
     FM230300 36014G22KT 4SM -RA BR SCT015 OVC025
     FM230600 01015G23KT 6SM -SHRA OVC015
     FM230800 36015G23KT P6SM -SHRA OVC015
     FM231600 36017G30KT P6SM OVC025 PROB30 2316/2318 P6SM -RA
      OVC015
     FM232100 36012G21KT P6SM SCT025 OVC050=



000
FTUS41 KPHI 222300 RRA
TAFACY
TAF
KACY 222346Z 2300/2324 34015G25KT 6SM -RA BR SCT015 OVC025
     FM230600 33016G25KT P6SM -SHRA BKN015 OVC025
     FM231400 32017G25KT P6SM -SHRA BKN015 OVC025
     FM231900 32015G25KT P6SM SCT025 OVC050=



000
FTUS41 KPHI 222300 RRA
TAFPNE
TAF
KPNE 222346Z 2300/2324 35016G24KT 6SM -RA BR SCT015 OVC030
     FM230300 34014G22KT P6SM -SHRA OVC025
     FM231400 32017G30KT P6SM OVC025 PROB30 2314/2317 P6SM -RA
      OVC015
     FM231700 33017G30KT P6SM OVC025 PROB30 2317/2321 P6SM -RA
      OVC015
     FM232100 34015G24KT P6SM SCT025 OVC050=



000
FTUS41 KPHI 222300 RRA
TAFMIV
TAF
KMIV 222346Z 2300/2324 34015G24KT 6SM -RA SCT015 OVC025
     FM230300 33016G25KT P6SM -SHRA BKN015 OVC025
     FM231400 32017G25KT P6SM BKN025 OVC035
     FM231900 32015G25KT P6SM SCT025 OVC050=



000
FTUS41 KPHI 222300 RRA
TAFRDG
TAF
KRDG 222346Z 2300/2324 35015G25KT P6SM -SHRA SCT015 OVC025
     FM230200 33015G23KT P6SM -SHRA SCT015 OVC025
     FM231400 33017G28KT P6SM OVC025 PROB30 2314/2316 6SM -RA OVC015
     FM232000 34017G23KT P6SM SCT025 OVC050=



000
FTUS41 KPHI 222300 RRA
TAFILG
TAF
KILG 222346Z 2300/2324 33015G24KT 6SM -RA BR SCT015 OVC035
     FM230300 32016G25KT 6SM -RA BR SCT015 OVC025
     FM231400 33017G30KT P6SM BKN025 OVC035
     FM231700 32015G30KT P6SM SCT025 OVC035=



000
FTUS41 KPHI 222300 RRA
TAFPHL
TAF
KPHL 222346Z 2300/2406 35015G24KT 6SM -RA BR SCT015 OVC025
     FM230300 34014G22KT P6SM -SHRA BKN025
     FM231400 32017G30KT P6SM BKN025 OVC035 PROB30 2314/2317 P6SM
      -RA OVC015
     FM231700 33017G30KT P6SM OVC035
     FM232100 33015G24KT P6SM SCT025 OVC035=



000
FTUS41 KPHI 222300 RRA
TAFABE
TAF
KABE 222346Z 2300/2324 35010G20KT P6SM -SHRA SCT015 OVC025
     FM230200 33016G24KT P6SM -SHRA SCT015 OVC025
     FM231400 34017G28KT P6SM OVC025 PROB30 2314/2318 P6SM -RA
      OVC015
     FM232100 34016G24KT P6SM SCT025 OVC050=



000
FTUS41 KPHI 222100 AAB
TAFACY
TAF AMD
KACY 222200Z 2222/2318 34015G22KT 6SM -RA BR OVC012
      TEMPO 2222/2301 4SM -RA BR OVC010
     FM230600 33014G22KT P6SM -SHRA OVC015
     FM231400 32014G22KT P6SM -SHRA SCT015 OVC025=



000
FTUS41 KPHI 222100 AAB
TAFILG
TAF AMD
KILG 222159Z 2222/2318 34012G20KT 6SM -RA BR SCT015 OVC025
      TEMPO 2222/2301 SCT015 OVC030
     FM230200 33014G22KT P6SM -SHRA SCT015 OVC025
     FM231400 32014G22KT P6SM BKN025 OVC035=



000
FTUS41 KPHI 222100 AAB
TAFPHL
TAF AMD
KPHL 222159Z 2222/2324 36012G20KT 6SM -RA BR SCT015 OVC025
      TEMPO 2222/2301 SCT015 OVC035
     FM230200 34014G22KT P6SM -SHRA SCT015 OVC025
     FM231400 33014G22KT P6SM BKN025 OVC035
     FM232100 33014G22KT P6SM SCT025 OVC035=



000
FTUS41 KPHI 222100 AAB
TAFMIV
TAF AMD
KMIV 222159Z 2222/2318 34014G20KT 6SM -RA SCT015 OVC025
      TEMPO 2222/2301 4SM -RA BR OVC015
     FM230100 33012G20KT P6SM -SHRA BKN015 OVC025
     FM231400 32012G20KT P6SM BKN025 OVC035=



000
FTUS41 KPHI 222100 AAB
TAFPNE
TAF AMD
KPNE 222157Z 2222/2318 36014G22KT 6SM -RA BR OVC025
      TEMPO 2222/2301 SCT015 OVC030
     FM230100 34014G22KT P6SM -SHRA SCT015 OVC025
     FM231400 33014G22KT P6SM BKN025 OVC035=



000
FTUS41 KPHI 222100 AAB
TAFABE
TAF AMD
KABE 222156Z 2222/2318 35015G25KT P6SM -SHRA SCT015 OVC025
      TEMPO 2222/2302 BKN025 OVC035
     FM230200 34012G20KT P6SM -SHRA SCT015 OVC025
     FM231400 33014G22KT P6SM BKN025 OVC035=



000
FTUS41 KPHI 222100 AAA
TAFRDG
TAF AMD
KRDG 222107Z 2221/2318 35012G20KT P6SM -SHRA SCT015 OVC025
     FM230200 33012G20KT P6SM -SHRA SCT015 OVC025
     FM231400 33014G22KT P6SM BKN025 OVC035=



000
FTUS41 KPHI 222100 AAA
TAFACY
TAF AMD
KACY 222105Z 2221/2318 34015G22KT 6SM -RA BR OVC012
      TEMPO 2222/2301 4SM -RA BR OVC010
     FM230600 33014G22KT P6SM -SHRA OVC015
     FM231400 32014G22KT P6SM -SHRA SCT015 OVC025=



000
FTUS41 KPHI 222100 AAA
TAFMIV
TAF AMD
KMIV 222104Z 2221/2318 34014G20KT 6SM -RA SCT015 OVC025
      TEMPO 2221/2301 4SM -RA BR OVC015
     FM230100 33012G20KT P6SM -SHRA BKN015 OVC025
     FM231400 32012G20KT P6SM BKN025 OVC035=



000
FTUS41 KPHI 222100 AAA
TAFPHL
TAF AMD
KPHL 222102Z 2221/2324 36012G20KT 6SM -RA BR BKN015 OVC025
      TEMPO 2221/2301 SCT015 OVC020
     FM230200 34014G22KT P6SM -SHRA SCT015 OVC025
     FM231400 33014G22KT P6SM BKN025 OVC035
     FM232100 33014G22KT P6SM SCT025 OVC035=



000
FTUS41 KPHI 222100 AAA
TAFILG
TAF AMD
KILG 222102Z 2221/2318 34012G20KT 6SM -RA BR SCT015 OVC025
      TEMPO 2222/2301 SCT015 OVC020
     FM230200 33014G22KT P6SM -SHRA SCT015 OVC025
     FM231400 32014G22KT P6SM BKN025 OVC035=



000
FTUS41 KPHI 222100 AAA
TAFPNE
TAF AMD
KPNE 222101Z 2221/2318 36012G20KT 6SM -RA BR OVC025
      TEMPO 2221/2301 SCT015 OVC020
     FM230100 34014G22KT P6SM -SHRA SCT015 OVC025
     FM231400 33014G22KT P6SM BKN025 OVC035=



000
FTUS41 KPHI 222000 AAA
TAFTTN
TAF AMD
KTTN 222059Z 2221/2318 36012G20KT P6SM -RA OVC020
     FM230000 35012G20KT 4SM -RA BR OVC012
     FM230600 34012G20KT P6SM -SHRA OVC015
     FM231400 33012G20KT P6SM -SHRA SCT015 OVC025=



000
FTUS41 KPHI 222000 AAA
TAFABE
TAF AMD
KABE 222058Z 2221/2318 36010G18KT P6SM -SHRA SCT015 OVC025
      TEMPO 2221/2222 BKN015 OVC025
     FM230200 34012G20KT P6SM -SHRA SCT015 OVC025
     FM231400 33014G22KT P6SM BKN025 OVC035=



000
FTUS41 KPHI 221700
TAFRDG
TAF
KRDG 221740Z 2218/2318 36010G18KT P6SM -SHRA SCT015 OVC025
      TEMPO 2218/2222 BKN015 OVC025
     FM230200 33012G20KT P6SM -SHRA SCT015 OVC025
     FM231400 33014G22KT P6SM BKN025 OVC035=



000
FTUS41 KPHI 221700
TAFTTN
TAF
KTTN 221740Z 2218/2318 01012G20KT P6SM -RA OVC015
     FM230000 35012G20KT 4SM -RA BR OVC012
     FM230600 34012G20KT P6SM -SHRA OVC015
     FM231400 33012G20KT P6SM -SHRA SCT015 OVC025=



000
FTUS41 KPHI 221700
TAFABE
TAF
KABE 221740Z 2218/2318 01010G18KT P6SM -SHRA SCT015 OVC025
      TEMPO 2218/2222 BKN015 OVC025
     FM230200 34012G20KT P6SM -SHRA SCT015 OVC025
     FM231400 33014G22KT P6SM BKN025 OVC035=



000
FTUS41 KPHI 221700
TAFPNE
TAF
KPNE 221740Z 2218/2318 01012G20KT 4SM -RA BR BKN015 OVC025
     FM222000 36012G20KT P6SM -RA BKN015 OVC025
      TEMPO 2222/2302 SCT015 OVC025
     FM230200 34014G22KT P6SM -SHRA SCT015 OVC025
     FM231400 33014G22KT P6SM BKN025 OVC035=



000
FTUS41 KPHI 221700
TAFACY
TAF
KACY 221740Z 2218/2318 02014G22KT P6SM BKN015 OVC025
      TEMPO 2218/2220 4SM -RA BR SCT015 OVC025
     FM222000 35014G22KT 4SM -RA BR OVC012
     FM230600 33014G22KT P6SM -SHRA OVC015
     FM231400 32014G22KT P6SM -SHRA SCT015 OVC025=



000
FTUS41 KPHI 221700
TAFILG
TAF
KILG 221740Z 2218/2318 01012G20KT 4SM -RA BR BKN015 OVC025
     FM222000 35012G20KT P6SM -RA BKN015 OVC025
      TEMPO 2222/2302 SCT015 OVC025
     FM230200 33014G22KT P6SM -SHRA SCT015 OVC025
     FM231400 32014G22KT P6SM BKN025 OVC035=



000
FTUS41 KPHI 221700
TAFPNE
TAF
KPNE 221740Z 2218/2318 01012G20KT 4SM -RA BR BKN015 OVC025
     FM222000 36012G20KT P6SM -RA BKN015 OVC025
      TEMPO 2222/2302 SCT015 OVC025
     FM230200 34014G22KT P6SM -SHRA SCT015 OVC025
     FM231400 33014G22KT P6SM BKN025 OVC035=



000
FTUS41 KPHI 221700
TAFMIV
TAF
KMIV 221740Z 2218/2318 02012G20KT P6SM SCT015 OVC025
      TEMPO 2218/2220 4SM -RA BR OVC015
     FM222000 36012G20KT 4SM -RA BR OVC012
     FM230200 33012G20KT P6SM -SHRA BKN015 OVC025
     FM231400 32012G20KT P6SM BKN025 OVC035=



000
FTUS41 KPHI 221700
TAFILG
TAF
KILG 221740Z 2218/2318 01012G20KT 4SM -RA BR BKN015 OVC025
     FM222000 35012G20KT P6SM -RA BKN015 OVC025
      TEMPO 2222/2302 SCT015 OVC025
     FM230200 33014G22KT P6SM -SHRA SCT015 OVC025
     FM231400 32014G22KT P6SM BKN025 OVC035=



000
FTUS41 KPHI 221700
TAFPHL
TAF
KPHL 221740Z 2218/2324 01012G20KT 4SM -RA BR BKN015 OVC025
     FM222000 01012G20KT P6SM -RA BKN015 OVC025
      TEMPO 2222/2302 SCT015 OVC025
     FM230200 34014G22KT P6SM -SHRA SCT015 OVC025
     FM231400 33014G22KT P6SM BKN025 OVC035
     FM232100 33014G22KT P6SM SCT025 OVC035=



000
FTUS41 KPHI 221700
TAFRDG
TAF
KRDG 221740Z 2218/2318 36010G18KT P6SM -SHRA SCT015 OVC025
      TEMPO 2218/2222 BKN015 OVC025
     FM230200 33012G20KT P6SM -SHRA SCT015 OVC025
     FM231400 33014G22KT P6SM BKN025 OVC035=



000
FTUS41 KPHI 221700
TAFTTN
TAF
KTTN 221740Z 2218/2318 01012G20KT P6SM -RA OVC015
     FM230000 35012G20KT 4SM -RA BR OVC012
     FM230600 34012G20KT P6SM -SHRA OVC015
     FM231400 33012G20KT P6SM -SHRA SCT015 OVC025=



000
FTUS41 KPHI 221700
TAFPHL
TAF
KPHL 221740Z 2218/2324 01012G20KT 4SM -RA BR BKN015 OVC025
     FM222000 01012G20KT P6SM -RA BKN015 OVC025
      TEMPO 2222/2302 SCT015 OVC025
     FM230200 34014G22KT P6SM -SHRA SCT015 OVC025
     FM231400 33014G22KT P6SM BKN025 OVC035
     FM232100 33014G22KT P6SM SCT025 OVC035=



000
FTUS41 KPHI 221700
TAFABE
TAF
KABE 221740Z 2218/2318 01010G18KT P6SM -SHRA SCT015 OVC025
      TEMPO 2218/2222 BKN015 OVC025
     FM230200 34012G20KT P6SM -SHRA SCT015 OVC025
     FM231400 33014G22KT P6SM BKN025 OVC035=



000
FTUS41 KPHI 221700
TAFMIV
TAF
KMIV 221740Z 2218/2318 02012G20KT P6SM SCT015 OVC025
      TEMPO 2218/2220 4SM -RA BR OVC015
     FM222000 36012G20KT 4SM -RA BR OVC012
     FM230200 33012G20KT P6SM -SHRA BKN015 OVC025
     FM231400 32012G20KT P6SM BKN025 OVC035=



000
FTUS41 KPHI 221700
TAFACY
TAF
KACY 221740Z 2218/2318 02014G22KT P6SM BKN015 OVC025
      TEMPO 2218/2220 4SM -RA BR SCT015 OVC025
     FM222000 35014G22KT 4SM -RA BR OVC012
     FM230600 33014G22KT P6SM -SHRA OVC015
     FM231400 32014G22KT P6SM -SHRA SCT015 OVC025=



000
FTUS41 KPHI 221500 AAC
TAFPHL
TAF AMD
KPHL 221546Z 2216/2318 02014G24KT 5SM -RA BR OVC015
     FM222000 01016G28KT 6SM -RA BKN020
     FM230200 34016KT P6SM OVC035
     FM230600 32015KT P6SM -RA OVC025=



000
FTUS41 KPHI 221500 AAC
TAFPNE
TAF AMD
KPNE 221546Z 2216/2312 02014G22KT 5SM -RA BR OVC015
     FM222100 35016G25KT 6SM -RA BKN020
     FM230200 35016KT P6SM OVC035
     FM230600 32015KT P6SM -RA OVC025=



000
FTUS41 KPHI 221500 AAC
TAFPHL
TAF AMD
KPHL 221546Z 2216/2318 02014G24KT 5SM -RA BR OVC015
     FM222000 01016G28KT 6SM -RA BKN020
     FM230200 34016KT P6SM OVC035
     FM230600 32015KT P6SM -RA OVC025=



000
FTUS41 KPHI 221500 AAC
TAFPNE
TAF AMD
KPNE 221546Z 2216/2312 02014G22KT 5SM -RA BR OVC015
     FM222100 35016G25KT 6SM -RA BKN020
     FM230200 35016KT P6SM OVC035
     FM230600 32015KT P6SM -RA OVC025=



000
FTUS41 KPHI 221500 AAB
TAFMIV
TAF AMD
KMIV 221510Z 2215/2312 02010G18KT P6SM -SHRA OVC015
     FM222100 36013G24KT 6SM -RA BR OVC025
     FM230400 33012G21KT P6SM OVC030
     FM231100 30013G25KT P6SM BKN020=



000
FTUS41 KPHI 221500 AAC
TAFACY
TAF AMD
KACY 221510Z 2215/2312 02012G20KT P6SM -SHRA OVC015
     FM222000 35016G22KT 6SM -RA BR OVC015
     FM230400 34015G28KT P6SM OVC030
     FM231100 32015G25KT P6SM OVC025=



000
FTUS41 KPHI 221500 AAB
TAFILG
TAF AMD
KILG 221507Z 2215/2312 02012G22KT P6SM -RA OVC015
     FM222000 35016G25KT 6SM -RA BKN020
     FM230200 35016KT P6SM OVC035
     FM230600 32015KT P6SM -RA OVC025=



000
FTUS41 KPHI 221500 AAB
TAFPHL
TAF AMD
KPHL 221507Z 2215/2318 02012G24KT P6SM -RA OVC015
     FM222000 01016G28KT 6SM -RA BKN020
     FM230200 34016KT P6SM OVC035
     FM230600 32015KT P6SM -RA OVC025=



000
FTUS41 KPHI 221500 AAB
TAFTTN
TAF AMD
KTTN 221505Z 2215/2312 02012G22KT 5SM -RA BR OVC015
     FM222100 35016G25KT 6SM -RA BKN020
     FM230200 35016KT P6SM OVC035
     FM230600 32015KT P6SM -RA OVC025=



000
FTUS41 KPHI 221500 AAB
TAFPNE
TAF AMD
KPNE 221505Z 2215/2312 02012G22KT P6SM -RA OVC015
     FM222100 35016G25KT 6SM -RA BKN020
     FM230200 35016KT P6SM OVC035
     FM230600 32015KT P6SM -RA OVC025=



000
FTUS41 KPHI 221500 AAB
TAFABE
TAF AMD
KABE 221504Z 2215/2312 03010G18KT P6SM -RA OVC015
     FM222100 36014KT P6SM -SHRA OVC025
     FM230200 33013KT P6SM OVC035
     FM230800 32015KT P6SM -RA OVC025=



000
FTUS41 KPHI 221500 AAB
TAFRDG
TAF AMD
KRDG 221504Z 2215/2312 01010G18KT P6SM -RA OVC015
     FM222300 34013KT P6SM -SHRA OVC025
     FM230200 33013KT P6SM OVC035
     FM230800 32015KT P6SM -RA OVC025=



000
FTUS41 KPHI 221400 AAB
TAFACY
TAF AMD
KACY 221410Z 2214/2312 01010G18KT P6SM SCT015 BKN050
      TEMPO 2214/2216 -RA OVC015
     FM221600 03012G20KT 4SM RA BR BKN012
     FM221800 35016G22KT 6SM -RA BR OVC015
     FM222100 35015G28KT P6SM OVC030
     FM230600 32015G25KT P6SM OVC025=



000
FTUS41 KPHI 221300 AAA
TAFMIV
TAF AMD
KMIV 221310Z 2213/2312 02010KT P6SM SCT015 BKN050
      TEMPO 2215/2216 -RA OVC015
     FM221600 03010G18KT 4SM RA BR SCT007 BKN012
     FM221900 36013G24KT 6SM -RA BR OVC025
     FM230400 33012G21KT P6SM OVC030
     FM231100 30013G25KT P6SM BKN020=



000
FTUS41 KPHI 221300 AAA
TAFACY
TAF AMD
KACY 221310Z 2213/2312 01010G18KT P6SM SCT015 BKN050
      TEMPO 2215/2216 -RA OVC015
     FM221600 03012G20KT 4SM RA BR BKN012
     FM221800 35016G22KT 6SM -RA BR OVC015
     FM222100 35015G28KT P6SM OVC030
     FM230600 32015G25KT P6SM OVC025=



000
FTUS41 KPHI 221300 AAA
TAFILG
TAF AMD
KILG 221308Z 2213/2312 02010G20KT P6SM BKN015 OVC050
      TEMPO 2213/2216 -RA SCT015 OVC050
     FM221600 02012G20KT 4SM RA BKN015
     FM222000 35016G25KT 6SM -RA BKN020
     FM230200 35017KT P6SM OVC035
     FM230600 32015KT P6SM -RA OVC025=



000
FTUS41 KPHI 221300 AAA
TAFPHL
TAF AMD
KPHL 221308Z 2213/2318 03012G22KT P6SM BKN015 OVC050
      TEMPO 2213/2216 -RA SCT015 OVC050
     FM221600 01012G20KT 4SM RA BKN015
     FM222000 01016G28KT 6SM -RA BKN020
     FM230200 34017KT P6SM OVC035
     FM230600 32015KT P6SM -RA OVC025=



000
FTUS41 KPHI 221300 AAA
TAFTTN
TAF AMD
KTTN 221305Z 2213/2312 02010G18KT 6SM -RA BR BKN012 OVC050
      TEMPO 2213/2216 4SM -RA BR SCT012 OVC050
     FM221600 03012G20KT 4SM RA BR OVC012
     FM222100 35016G25KT 6SM -RA BKN020
     FM230200 35017KT P6SM OVC035
     FM230600 32015KT P6SM -RA OVC025=



000
FTUS41 KPHI 221300 AAA
TAFPNE
TAF AMD
KPNE 221305Z 2213/2312 03012G22KT P6SM -RA BKN012 OVC050
      TEMPO 2213/2216 4SM -RA BR SCT012 OVC050
     FM221600 03012G20KT 4SM RA BR OVC012
     FM222100 35016G25KT 6SM -RA BKN020
     FM230200 35017KT P6SM OVC035
     FM230600 32015KT P6SM -RA OVC025=



000
FTUS41 KPHI 221300 AAA
TAFABE
TAF AMD
KABE 221303Z 2213/2312 03010G18KT 4SM -RA BR OVC015
      TEMPO 2213/2217 SCT015 OVC025
     FM221700 03012G20KT 5SM -RA BR BKN020
     FM222100 36014KT P6SM -SHRA OVC025
     FM230200 33013KT P6SM OVC035
     FM230800 32015KT P6SM -RA OVC025=



000
FTUS41 KPHI 221300 AAA
TAFRDG
TAF AMD
KRDG 221303Z 2213/2312 01010KT P6SM -RA SCT015 OVC025
      TEMPO 2213/2217 4SM -RA BR OVC015
     FM221700 36012G20KT 5SM -RA BR BKN020
     FM222300 34013KT P6SM -SHRA OVC050
     FM230200 33013KT P6SM OVC035
     FM230800 32015KT P6SM -RA OVC025=



000
FTUS41 KPHI 221100
TAFTTN
TAF
KTTN 221136Z 2212/2312 03010KT 6SM -RA SCT007 OVC012
     FM221300 03012G20KT 4SM RA BR OVC012
     FM222100 35016G25KT 6SM -RA BKN020
     FM230200 35017KT P6SM OVC035
     FM230600 32015KT P6SM -RA OVC025=



000
FTUS41 KPHI 221100
TAFRDG
TAF
KRDG 221136Z 2212/2312 01009KT 6SM -RA SCT008 OVC020
     FM221500 36012G20KT 5SM -RA BR BKN020
     FM222300 34013KT P6SM -SHRA OVC050
     FM230200 33013KT P6SM OVC035
     FM230800 32015KT P6SM -RA OVC025=



000
FTUS41 KPHI 221100
TAFPHL
TAF
KPHL 221136Z 2212/2318 02012G20KT 6SM -RA SCT009 OVC012
     FM221500 01012G20KT 4SM RA BKN015
     FM222000 01016G28KT 6SM -RA BKN020
     FM230200 34017KT P6SM OVC035
     FM230600 32015KT P6SM -RA OVC025=



000
FTUS41 KPHI 221100
TAFILG
TAF
KILG 221136Z 2212/2312 03010KT 6SM -RA BKN015
     FM221600 02012G20KT 4SM RA BKN015
     FM222000 35016G25KT 6SM -RA BKN020
     FM230200 35017KT P6SM OVC035
     FM230600 32015KT P6SM -RA OVC025=



000
FTUS41 KPHI 221100
TAFABE
TAF
KABE 221136Z 2212/2312 03009KT 6SM -RA SCT008 OVC020
     FM221500 03012G20KT 5SM -RA BR BKN020
     FM222100 36014KT P6SM -SHRA OVC025
     FM230200 33013KT P6SM OVC035
     FM230800 32015KT P6SM -RA OVC025=



000
FTUS41 KPHI 221100
TAFPNE
TAF
KPNE 221136Z 2212/2312 03012G20KT 6SM -RA SCT007 OVC012
     FM221400 03012G20KT 4SM RA BR OVC012
     FM222100 35016G25KT 6SM -RA BKN020
     FM230200 35017KT P6SM OVC035
     FM230600 32015KT P6SM -RA OVC025=



000
FTUS41 KPHI 221100
TAFMIV
TAF
KMIV 221136Z 2212/2312 01007KT 6SM -RA OVC008
     FM221500 03010G18KT 4SM RA BR SCT007 BKN012
     FM221900 36013G24KT 6SM -RA BR OVC025
     FM230400 33012G21KT P6SM OVC030
     FM231100 30013G25KT P6SM BKN020=



000
FTUS41 KPHI 221100
TAFACY
TAF
KACY 221136Z 2212/2312 03010KT P6SM SCT008 BKN060
     FM221500 03012G20KT 4SM RA BR BKN012
     FM221800 35016G22KT 6SM -RA BR OVC015
     FM222100 35015G28KT P6SM OVC030
     FM230600 32015G25KT P6SM OVC025=



000
FTUS41 KPHI 221000 AAB
TAFTTN
TAF AMD
KTTN 221055Z 2211/2306 05012KT 6SM -RA SCT007 OVC015
     FM221500 05012G20KT 4SM RA BR OVC012
     FM222100 35016G25KT 6SM -RA BKN020
     FM230200 35017KT P6SM OVC025=



000
FTUS41 KPHI 221000 AAB
TAFABE
TAF AMD
KABE 221055Z 2211/2306 05007KT 6SM -RA SCT012 BKN035
     FM221300 03009KT 4SM -RA BR SCT008 OVC012
     FM221500 03012G20KT 5SM -RA BR BKN020
     FM222100 36014KT P6SM -SHRA OVC025=



000
FTUS41 KPHI 221000 AAB
TAFMIV
TAF AMD
KMIV 221054Z 2211/2306 01007KT 6SM -RA BKN008
     FM221500 03010G18KT 4SM RA BR BKN012
     FM221900 36013G24KT 6SM -RA BR OVC025
     FM230400 32012KT P6SM OVC025=



000
FTUS41 KPHI 221000 AAB
TAFACY
TAF AMD
KACY 221054Z 2211/2306 03010KT 6SM -RA SCT025 OVC040
     FM221500 03012G20KT 4SM RA BR BKN012
     FM221800 35016G22KT 6SM -RA BR OVC015
     FM222300 35015KT P6SM OVC025=



000
FTUS41 KPHI 221000 AAB
TAFILG
TAF AMD
KILG 221053Z 2211/2306 03010KT 6SM -RA BKN015
     FM221400 02012G20KT 4SM RA BKN015
     FM222100 35016G25KT 6SM -RA BKN020
     FM230200 35017KT P6SM OVC025=



000
FTUS41 KPHI 221000 AAC
TAFPHL
TAF AMD
KPHL 221053Z 2211/2312 03012G20KT 6SM -RA BKN015 OVC035
     FM221600 01012G20KT 4SM RA SCT009 BKN015
     FM222100 01016G25KT 6SM -RA BKN020
     FM230200 35017KT P6SM OVC025
     FM230600 32015KT P6SM -RA OVC025=



000
FTUS41 KPHI 220900 AAB
TAFPHL
TAF AMD
KPHL 220900Z 2209/2312 03012KT 6SM -RA BKN015 OVC035
     FM221100 03012KT 4SM -RA BR SCT009 OVC015
     FM221600 01012G20KT 4SM RA BKN015
     FM222100 35016G25KT 6SM -RA BKN020
     FM230200 35017KT P6SM OVC025
     FM230600 32015KT P6SM -RA OVC025=



000
FTUS41 KPHI 220800 AAA
TAFILG
TAF AMD
KILG 220827Z 2208/2306 03010KT 6SM -RA BKN015
     FM221100 02010KT 4SM -RA BR BKN008
     FM221600 02012G20KT 4SM RA BKN015
     FM222100 35016G25KT 6SM -RA BKN020
     FM230200 35017KT P6SM OVC025=



000
FTUS41 KPHI 220800 AAA
TAFRDG
TAF AMD
KRDG 220827Z 2208/2306 03007KT 6SM -RA BKN015
     FM221000 05007KT 6SM -RA BKN020
     FM221200 01009KT 4SM -RA BR SCT008 OVC012
     FM221500 36012G20KT 5SM -RA BR BKN020
     FM222300 34013KT P6SM -SHRA OVC050=



000
FTUS41 KPHI 220700 AAA
TAFPHL
TAF AMD
KPHL 220733Z 2208/2312 03012KT 6SM -RA BKN025 OVC040
     FM220900 03012KT 6SM -RA BKN015
     FM221100 03012KT 4SM -RA BR SCT009 OVC015
     FM221600 01012G20KT 4SM RA BKN015
     FM222100 35016G25KT 6SM -RA BKN020
     FM230200 35017KT P6SM OVC025
     FM230600 32015KT P6SM -RA OVC025=



000
FTUS41 KPHI 220700 AAA
TAFACY
TAF AMD
KACY 220721Z 2207/2306 03007KT 6SM -RA SCT025 OVC040
      TEMPO 2207/2211 4SM -TSRA BR SCT008 OVC025CB
     FM221100 03010KT 4SM -RA BR BKN008
     FM221500 03012G20KT 4SM RA BR BKN012
     FM221800 35016G22KT 6SM -RA BR OVC015
     FM222300 35015KT P6SM OVC025=



000
FTUS41 KPHI 220700 AAA
TAFTTN
TAF AMD
KTTN 220718Z 2207/2306 03010KT 6SM -RA BKN015
     FM221100 05010KT 4SM -RA BR SCT007 OVC015
     FM221500 05012G20KT 4SM RA BR OVC012
     FM222100 35016G25KT 6SM -RA BKN020
     FM230200 35017KT P6SM OVC025=



000
FTUS41 KPHI 220700 AAA
TAFMIV
TAF AMD
KMIV 220710Z 2207/2306 01007KT 6SM -RA SCT007 OVC010
     FM221100 01007KT 4SM -RA BR BKN008
     FM221500 03010G18KT 4SM RA BR BKN012
     FM221900 36013G24KT 6SM -RA BR OVC025
     FM230400 32012KT P6SM OVC025=



000
FTUS41 KPHI 220700 AAA
TAFPNE
TAF AMD
KPNE 220709Z 2207/2306 03012KT 6SM -RA BKN015
     FM221100 03012KT 4SM -RA BR SCT007 OVC015
     FM221500 03012G20KT 4SM RA BR OVC012
     FM222100 35016G25KT 6SM -RA BKN020
     FM230200 35017KT P6SM OVC025=



000
FTUS41 KPHI 220600 AAA
TAFABE
TAF AMD
KABE 220608Z 2206/2306 05007KT 6SM -RA BKN012 BKN025
     FM221200 03009KT 4SM -RA BR SCT008 OVC012
     FM221500 03012G20KT 5SM -RA BR BKN020
     FM222100 36014KT P6SM -SHRA OVC025=



000
FTUS41 KPHI 220500
TAFPHL
TAF
KPHL 220539Z 2206/2312 01010KT P6SM SCT025 OVC040
     FM220900 03010KT 6SM -RA SCT015 OVC035
     FM221100 03010KT 4SM -RA BR SCT009 OVC015
     FM221600 01012G20KT 4SM RA BKN015
     FM222100 35016G25KT 6SM -RA BKN020
     FM230200 35017KT P6SM OVC025
     FM230600 32015KT P6SM -RA OVC025=



000
FTUS41 KPHI 220500
TAFMIV
TAF
KMIV 220539Z 2206/2306 01007KT 6SM -RA SCT025 OVC040
     FM221100 01007KT 4SM -RA BR BKN008
     FM221500 03010G18KT 4SM RA BR BKN012
     FM221900 36013G24KT 6SM -RA BR OVC025
     FM230400 32012KT P6SM OVC025=



000
FTUS41 KPHI 220500
TAFPNE
TAF
KPNE 220539Z 2206/2306 01010KT P6SM SCT025 OVC040
     FM220900 03010KT 6SM -RA SCT015 OVC035
     FM221100 03010KT 4SM -RA BR SCT007 OVC025
     FM221500 03012G20KT 4SM RA BR OVC012
     FM222100 35016G25KT 6SM -RA BKN020
     FM230200 35017KT P6SM OVC025=



000
FTUS41 KPHI 220500
TAFABE
TAF
KABE 220539Z 2206/2306 36003KT P6SM OVC040
     FM221000 05007KT 6SM -RA BKN020
     FM221200 03009KT 4SM -RA BR SCT008 OVC012
     FM221500 03012G20KT 5SM -RA BR BKN020
     FM222100 36014KT P6SM -SHRA OVC025=



000
FTUS41 KPHI 220500
TAFILG
TAF
KILG 220539Z 2206/2306 01010KT P6SM SCT025 OVC040
     FM220900 03010KT 6SM -RA SCT015 OVC035
     FM221100 02010KT 4SM -RA BR BKN008
     FM221600 02012G20KT 4SM RA BKN015
     FM222100 35016G25KT 6SM -RA BKN020
     FM230200 35017KT P6SM OVC025=



000
FTUS41 KPHI 220500
TAFTTN
TAF
KTTN 220539Z 2206/2306 01008KT P6SM SCT025 OVC040
     FM220900 03010KT 6SM -RA SCT015 OVC035
     FM221100 05010KT 4SM -RA BR SCT007 OVC015
     FM221500 05012G20KT 4SM RA BR OVC012
     FM222100 35016G25KT 6SM -RA BKN020
     FM230200 35017KT P6SM OVC025=



000
FTUS41 KPHI 220500
TAFACY
TAF
KACY 220539Z 2206/2306 VRB03KT 6SM BR OVC040
     FM220700 03007KT 6SM -RA SCT025 OVC040
     FM221100 03010KT 4SM -RA BR BKN008
     FM221500 03012G20KT 4SM RA BR BKN012
     FM221800 35016G22KT 6SM -RA BR OVC015
     FM222300 35015KT P6SM OVC025=



000
FTUS41 KPHI 220500
TAFPNE
TAF
KPNE 220539Z 2206/2306 01010KT P6SM SCT025 OVC040
     FM220900 03010KT 6SM -RA SCT015 OVC035
     FM221100 03010KT 4SM -RA BR SCT007 OVC025
     FM221500 03012G20KT 4SM RA BR OVC012
     FM222100 35016G25KT 6SM -RA BKN020
     FM230200 35017KT P6SM OVC025=



000
FTUS41 KPHI 220500
TAFACY
TAF
KACY 220539Z 2206/2306 VRB03KT 6SM BR OVC040
     FM220700 03007KT 6SM -RA SCT025 OVC040
     FM221100 03010KT 4SM -RA BR BKN008
     FM221500 03012G20KT 4SM RA BR BKN012
     FM221800 35016G22KT 6SM -RA BR OVC015
     FM222300 35015KT P6SM OVC025=



000
FTUS41 KPHI 220500
TAFTTN
TAF
KTTN 220539Z 2206/2306 01008KT P6SM SCT025 OVC040
     FM220900 03010KT 6SM -RA SCT015 OVC035
     FM221100 05010KT 4SM -RA BR SCT007 OVC015
     FM221500 05012G20KT 4SM RA BR OVC012
     FM222100 35016G25KT 6SM -RA BKN020
     FM230200 35017KT P6SM OVC025=



000
FTUS41 KPHI 220500
TAFMIV
TAF
KMIV 220539Z 2206/2306 01007KT 6SM -RA SCT025 OVC040
     FM221100 01007KT 4SM -RA BR BKN008
     FM221500 03010G18KT 4SM RA BR BKN012
     FM221900 36013G24KT 6SM -RA BR OVC025
     FM230400 32012KT P6SM OVC025=



000
FTUS41 KPHI 220500
TAFRDG
TAF
KRDG 220539Z 2206/2306 03007KT 6SM -RA SCT020 OVC035
     FM221000 05007KT 6SM -RA BKN020
     FM221200 01009KT 4SM -RA BR SCT008 OVC012
     FM221500 36012G20KT 5SM -RA BR BKN020
     FM222300 34013KT P6SM -SHRA OVC050=



000
FTUS41 KPHI 220500
TAFPHL
TAF
KPHL 220539Z 2206/2312 01010KT P6SM SCT025 OVC040
     FM220900 03010KT 6SM -RA SCT015 OVC035
     FM221100 03010KT 4SM -RA BR SCT009 OVC015
     FM221600 01012G20KT 4SM RA BKN015
     FM222100 35016G25KT 6SM -RA BKN020
     FM230200 35017KT P6SM OVC025
     FM230600 32015KT P6SM -RA OVC025=



000
FTUS41 KPHI 220500
TAFRDG
TAF
KRDG 220539Z 2206/2306 03007KT 6SM -RA SCT020 OVC035
     FM221000 05007KT 6SM -RA BKN020
     FM221200 01009KT 4SM -RA BR SCT008 OVC012
     FM221500 36012G20KT 5SM -RA BR BKN020
     FM222300 34013KT P6SM -SHRA OVC050=



000
FTUS41 KPHI 220500
TAFABE
TAF
KABE 220539Z 2206/2306 36003KT P6SM OVC040
     FM221000 05007KT 6SM -RA BKN020
     FM221200 03009KT 4SM -RA BR SCT008 OVC012
     FM221500 03012G20KT 5SM -RA BR BKN020
     FM222100 36014KT P6SM -SHRA OVC025=



000
FTUS41 KPHI 220500
TAFILG
TAF
KILG 220539Z 2206/2306 01010KT P6SM SCT025 OVC040
     FM220900 03010KT 6SM -RA SCT015 OVC035
     FM221100 02010KT 4SM -RA BR BKN008
     FM221600 02012G20KT 4SM RA BKN015
     FM222100 35016G25KT 6SM -RA BKN020
     FM230200 35017KT P6SM OVC025=



000
FTUS41 KPHI 220300 AAA
TAFABE
TAF AMD
KABE 220355Z 2204/2224 36003KT P6SM OVC040
     FM220600 03007KT 6SM -RA BKN020
     FM221000 03009KT 4SM -RA BR SCT008 OVC012
     FM221500 03012G20KT 5SM -RA BR BKN020
     FM222100 36014KT P6SM -SHRA OVC025=



000
FTUS41 KPHI 220300 AAA
TAFRDG
TAF AMD
KRDG 220354Z 2204/2224 01003KT P6SM OVC040
     FM220600 01007KT 6SM -RA SCT020 OVC035
     FM221000 01009KT 4SM -RA BR SCT008 OVC012
     FM221500 36012G20KT 5SM -RA BR BKN020
     FM222300 34013KT P6SM -SHRA OVC050=



000
FTUS41 KPHI 220300 AAA
TAFRDG
TAF AMD
KRDG 220354Z 2204/2224 01003KT P6SM OVC040
     FM220600 01007KT 6SM -RA SCT020 OVC035
     FM221000 01009KT 4SM -RA BR SCT008 OVC012
     FM221500 36012G20KT 5SM -RA BR BKN020
     FM222300 34013KT P6SM -SHRA OVC050=



000
FTUS41 KPHI 212300
TAFABE
TAF
KABE 212338Z 2200/2224 36003KT P6SM OVC040
      TEMPO 2200/2204 5SM -SHRA
     FM220600 03007KT 6SM -RA BKN020
     FM221000 03009KT 4SM -RA BR SCT008 OVC012
     FM221500 03012G20KT 5SM -RA BR BKN020
     FM222100 36014KT P6SM -SHRA OVC025=



000
FTUS41 KPHI 212300
TAFPHL
TAF
KPHL 212338Z 2200/2306 32006KT P6SM BKN050
     FM220400 03008KT 6SM -RA SCT025 OVC040
     FM220900 03010KT 4SM -RA BR SCT009 OVC015
     FM221600 03012G20KT 4SM RA BKN015
     FM222100 36016G25KT 6SM -RA BKN020
     FM230200 35017KT P6SM OVC025=



000
FTUS41 KPHI 212300
TAFTTN
TAF
KTTN 212338Z 2200/2224 01005KT P6SM BKN050
     FM220600 03008KT 6SM -RA SCT025 OVC040
     FM221100 05010KT 4SM -RA BR SCT007 OVC015
     FM221500 05012G20KT 4SM RA BR OVC012=



000
FTUS41 KPHI 212300
TAFPNE
TAF
KPNE 212338Z 2200/2224 33005KT P6SM BKN050
     FM220600 03008KT 6SM -RA SCT025 OVC040
     FM221100 03010KT 4SM -RA BR SCT007 OVC025
     FM221500 03012G20KT 4SM RA BR OVC012=



000
FTUS41 KPHI 212300
TAFILG
TAF
KILG 212338Z 2200/2224 32006KT P6SM SCT050
     FM220400 02008KT 6SM -RA SCT025 OVC040
     FM220900 02010KT 4SM -RA BR BKN008
     FM221600 02012G20KT 4SM RA BKN015
     FM222300 35019KT P6SM -SHRA OVC025=



000
FTUS41 KPHI 212300
TAFMIV
TAF
KMIV 212338Z 2200/2224 00000KT P6SM BKN050
     FM220700 01005KT 6SM -RA SCT025 OVC040
     FM221100 01007KT 4SM -RA BR BKN008
     FM221500 03010G18KT 4SM RA BR BKN012
     FM221900 36013G20KT 6SM -RA BR OVC025=



000
FTUS41 KPHI 212300
TAFACY
TAF
KACY 212338Z 2200/2224 24005KT P6SM SCT050 BKN100
     FM220300 VRB03KT 6SM BR OVC040
     FM220700 03007KT 6SM -RA SCT025 OVC040
     FM221100 03010KT 4SM -RA BR BKN008
     FM221500 03012G20KT 4SM RA BR BKN012
     FM221800 01016G22KT 6SM -RA BR OVC015=



000
FTUS41 KPHI 212300
TAFRDG
TAF
KRDG 212338Z 2200/2224 35003KT P6SM OVC040
      TEMPO 2201/2205 5SM -SHRA
     FM220600 01007KT 6SM -RA SCT020 OVC035
     FM221000 01009KT 4SM -RA BR SCT008 OVC012
     FM221500 36012G20KT 5SM -RA BR BKN020
     FM222300 34013KT P6SM -SHRA OVC050=



000
FTUS41 KPHI 212300
TAFRDG
TAF
KRDG 212338Z 2200/2224 35003KT P6SM OVC040
      TEMPO 2201/2205 5SM -SHRA
     FM220600 01007KT 6SM -RA SCT020 OVC035
     FM221000 01009KT 4SM -RA BR SCT008 OVC012
     FM221500 36012G20KT 5SM -RA BR BKN020
     FM222300 34013KT P6SM -SHRA OVC050=



000
FTUS41 KPHI 212300
TAFILG
TAF
KILG 212338Z 2200/2224 32006KT P6SM SCT050
     FM220400 02008KT 6SM -RA SCT025 OVC040
     FM220900 02010KT 4SM -RA BR BKN008
     FM221600 02012G20KT 4SM RA BKN015
     FM222300 35019KT P6SM -SHRA OVC025=



000
FTUS41 KPHI 212300
TAFABE
TAF
KABE 212338Z 2200/2224 36003KT P6SM OVC040
      TEMPO 2200/2204 5SM -SHRA
     FM220600 03007KT 6SM -RA BKN020
     FM221000 03009KT 4SM -RA BR SCT008 OVC012
     FM221500 03012G20KT 5SM -RA BR BKN020
     FM222100 36014KT P6SM -SHRA OVC025=



000
FTUS41 KPHI 212300
TAFPHL
TAF
KPHL 212338Z 2200/2306 32006KT P6SM BKN050
     FM220400 03008KT 6SM -RA SCT025 OVC040
     FM220900 03010KT 4SM -RA BR SCT009 OVC015
     FM221600 03012G20KT 4SM RA BKN015
     FM222100 36016G25KT 6SM -RA BKN020
     FM230200 35017KT P6SM OVC025=



000
FTUS41 KPHI 212300
TAFMIV
TAF
KMIV 212338Z 2200/2224 00000KT P6SM BKN050
     FM220700 01005KT 6SM -RA SCT025 OVC040
     FM221100 01007KT 4SM -RA BR BKN008
     FM221500 03010G18KT 4SM RA BR BKN012
     FM221900 36013G20KT 6SM -RA BR OVC025=



000
FTUS41 KPHI 212300
TAFACY
TAF
KACY 212338Z 2200/2224 24005KT P6SM SCT050 BKN100
     FM220300 VRB03KT 6SM BR OVC040
     FM220700 03007KT 6SM -RA SCT025 OVC040
     FM221100 03010KT 4SM -RA BR BKN008
     FM221500 03012G20KT 4SM RA BR BKN012
     FM221800 01016G22KT 6SM -RA BR OVC015=



000
FTUS41 KPHI 212300
TAFPNE
TAF
KPNE 212338Z 2200/2224 33005KT P6SM BKN050
     FM220600 03008KT 6SM -RA SCT025 OVC040
     FM221100 03010KT 4SM -RA BR SCT007 OVC025
     FM221500 03012G20KT 4SM RA BR OVC012=



000
FTUS41 KPHI 212300
TAFTTN
TAF
KTTN 212338Z 2200/2224 01005KT P6SM BKN050
     FM220600 03008KT 6SM -RA SCT025 OVC040
     FM221100 05010KT 4SM -RA BR SCT007 OVC015
     FM221500 05012G20KT 4SM RA BR OVC012=



000
FTUS41 KPHI 212000 AAA
TAFPHL
TAF AMD
KPHL 212059Z 2121/2224 28004KT P6SM FEW035 BKN080
     FM212300 32006KT P6SM BKN050
     FM220400 03008KT 6SM -RA SCT025 OVC040
     FM220900 03010KT 4SM -RA BR SCT009 OVC015
     FM221600 03012G20KT 4SM RA BKN015
     FM222100 36016G25KT 6SM -RA BKN015=



000
FTUS41 KPHI 211700 RRA
TAFTTN
TAF
KTTN 211751Z 2118/2218 26005KT P6SM SCT050 BKN100
     FM212200 36005KT P6SM VCSH BKN050
     FM220600 03008KT 6SM -RA SCT025 OVC040
     FM221100 05010KT 4SM -RA BR SCT007 OVC015
     FM221500 05012G20KT 4SM RA BR OVC012=



000
FTUS41 KPHI 211700 RRA
TAFILG
TAF
KILG 211751Z 2118/2218 27004KT P6SM FEW035 BKN050
     FM212200 32006KT P6SM VCSH BKN050
     FM220400 03008KT 6SM -RA SCT025 OVC040
     FM220900 03010KT 4SM -RA BR BKN008
     FM221600 03012G20KT 4SM RA BKN015=



000
FTUS41 KPHI 211700 RRA
TAFPNE
TAF
KPNE 211751Z 2118/2218 26005KT P6SM SCT050 BKN100
     FM212100 33005KT P6SM VCSH BKN050
     FM220600 03008KT 6SM -RA SCT025 OVC040
     FM221100 03010KT 4SM -RA BR SCT007 OVC025
     FM221500 03012G20KT 4SM RA BR OVC012=



000
FTUS41 KPHI 211700 RRA
TAFPHL
TAF
KPHL 211751Z 2118/2224 24004KT P6SM FEW035 BKN050
     FM212200 32006KT P6SM VCSH BKN050
     FM220400 03008KT 6SM -RA SCT025 OVC040
     FM220900 03010KT 4SM -RA BR SCT009 OVC015
     FM221600 03012G20KT 4SM RA BKN015
     FM222100 36016G25KT 6SM -RA BKN015=



000
FTUS41 KPHI 211700 RRA
TAFACY
TAF
KACY 211751Z 2118/2218 24005KT P6SM SCT050 BKN100
     FM220300 VRB03KT 6SM -SHRA OVC040
     FM220700 03007KT 6SM -RA SCT025 OVC040
     FM221100 03010KT 4SM -RA BR BKN008
     FM221500 03012G20KT 4SM RA BR BKN012=



000
FTUS41 KPHI 211700 RRA
TAFABE
TAF
KABE 211751Z 2118/2218 13003KT P6SM VCSH BKN050
     FM212200 27003KT 6SM -SHRA OVC040
     FM220600 03007KT 6SM -RA SCT020 OVC035
     FM221000 03009KT 4SM -RA BR SCT008 OVC012
     FM221500 03012G20KT 5SM -RA BR BKN020=



000
FTUS41 KPHI 211700 RRA
TAFRDG
TAF
KRDG 211751Z 2118/2218 36003KT P6SM VCSH BKN050
     FM212200 01003KT 6SM -SHRA OVC040
     FM220600 01007KT 6SM -RA SCT020 OVC035
     FM221000 01009KT 4SM -RA BR SCT008 OVC012
     FM221500 36012G20KT 5SM -RA BR BKN020=



000
FTUS41 KPHI 211700 RRA
TAFMIV
TAF
KMIV 211751Z 2118/2218 33005KT P6SM BKN050
     FM220200 VRB03KT 6SM -SHRA OVC040
     FM220700 01005KT 6SM -RA SCT025 OVC040
     FM221100 01007KT 4SM -RA BR BKN008
     FM221500 03010G18KT 4SM RA BR BKN012=



000
FTUS41 KPHI 211400 AAA
TAFPHL
TAF AMD
KPHL 211458Z 2115/2218 24004KT P6SM BKN100
     FM212200 32006KT P6SM VCSH BKN050
     FM220200 01003KT P6SM -SHRA OVC040
     FM220700 03008KT 6SM -RA SCT025 OVC040
     FM221100 03010KT 4SM -RA BR OVC025=



000
FTUS41 KPHI 211100 AAA
TAFRDG
TAF AMD
KRDG 211137Z 2112/2212 20003KT P6SM OVC080
      TEMPO 2112/2113 3SM BR
     FM211500 33005KT P6SM VCSH BKN080
     FM211800 36005KT P6SM -SHRA BKN050
     FM212300 01003KT 6SM -SHRA OVC040
     FM220600 01007KT 6SM -RA SCT020 OVC035
     FM221000 01009KT 4SM -RA BR OVC020=



000
FTUS41 KPHI 211100 AAA
TAFRDG
TAF AMD
KRDG 211137Z 2112/2212 20003KT P6SM OVC080
      TEMPO 2112/2113 3SM BR
     FM211500 33005KT P6SM VCSH BKN080
     FM211800 36005KT P6SM -SHRA BKN050
     FM212300 01003KT 6SM -SHRA OVC040
     FM220600 01007KT 6SM -RA SCT020 OVC035
     FM221000 01009KT 4SM -RA BR OVC020=



000
FTUS41 KPHI 211100
TAFILG
TAF
KILG 211132Z 2112/2212 23006KT P6SM FEW050 BKN150
     FM211600 27006KT P6SM SCT050 BKN100
     FM212100 33006KT P6SM -SHRA BKN050
     FM220300 36004KT 6SM -SHRA OVC040
     FM220700 01008KT 6SM -RA SCT025 OVC040
     FM221100 01010KT 4SM -RA BR OVC025=



000
FTUS41 KPHI 211100
TAFTTN
TAF
KTTN 211132Z 2112/2212 VRB03KT P6SM BKN100
     FM211500 26005KT P6SM SCT050 BKN100
     FM212100 36005KT P6SM -SHRA BKN050
     FM220200 03003KT P6SM VCSH OVC040
     FM220700 03008KT 6SM -RA SCT025 OVC040
     FM221100 05010KT 4SM -RA BR OVC025=



000
FTUS41 KPHI 211100
TAFPNE
TAF
KPNE 211132Z 2112/2212 20003KT P6SM FEW050 BKN150
     FM211600 26005KT P6SM SCT050 BKN100
     FM212100 33005KT P6SM -SHRA BKN050
     FM220200 36003KT P6SM VCSH OVC040
     FM220700 03008KT 6SM -RA SCT025 OVC040
     FM221100 03010KT 4SM -RA BR OVC025=



000
FTUS41 KPHI 211100
TAFRDG
TAF
KRDG 211132Z 2112/2212 20003KT P6SM OVC080
     FM211500 33005KT P6SM VCSH BKN080
     FM211800 36005KT P6SM -SHRA BKN050
     FM212300 01003KT 6SM -SHRA OVC040
     FM220600 01007KT 6SM -RA SCT020 OVC035
     FM221000 01009KT 4SM -RA BR OVC020=



000
FTUS41 KPHI 211100
TAFABE
TAF
KABE 211132Z 2112/2212 03005KT P6SM OVC070
     FM211500 01005KT P6SM VCSH BKN080
     FM211800 01005KT P6SM -SHRA BKN050
     FM212300 03003KT 6SM -SHRA OVC040
     FM220600 03007KT 6SM -RA SCT020 OVC035
     FM221000 03009KT 4SM -RA BR OVC020=



000
FTUS41 KPHI 211100
TAFPHL
TAF
KPHL 211132Z 2112/2218 22003KT P6SM FEW050 BKN150
     FM211600 27006KT P6SM VCSH BKN100
     FM212100 32006KT P6SM -SHRA BKN050
     FM220200 01003KT P6SM VCSH OVC040
     FM220700 03008KT 6SM -RA SCT025 OVC040
     FM221100 03010KT 4SM -RA BR OVC025=



000
FTUS41 KPHI 211100
TAFABE
TAF
KABE 211132Z 2112/2212 03005KT P6SM OVC070
     FM211500 01005KT P6SM VCSH BKN080
     FM211800 01005KT P6SM -SHRA BKN050
     FM212300 03003KT 6SM -SHRA OVC040
     FM220600 03007KT 6SM -RA SCT020 OVC035
     FM221000 03009KT 4SM -RA BR OVC020=



000
FTUS41 KPHI 211100
TAFMIV
TAF
KMIV 211132Z 2112/2212 22003KT P6SM FEW050 BKN150
      TEMPO 2112/2113 6SM BR
     FM211700 27005KT P6SM SCT050 BKN100
     FM212200 33005KT P6SM -SHRA BKN050
     FM220300 VRB03KT 6SM -SHRA OVC040
     FM220700 01005KT 6SM -RA SCT025 OVC040
     FM221100 01007KT 4SM -RA BR OVC025=



000
FTUS41 KPHI 211100
TAFRDG
TAF
KRDG 211132Z 2112/2212 20003KT P6SM OVC080
     FM211500 33005KT P6SM VCSH BKN080
     FM211800 36005KT P6SM -SHRA BKN050
     FM212300 01003KT 6SM -SHRA OVC040
     FM220600 01007KT 6SM -RA SCT020 OVC035
     FM221000 01009KT 4SM -RA BR OVC020=



000
FTUS41 KPHI 211100
TAFACY
TAF
KACY 211132Z 2112/2212 21005KT P6SM FEW050 BKN150
     FM211700 24005KT P6SM SCT050 BKN100
     FM212200 32005KT P6SM -SHRA BKN050
     FM220300 VRB03KT 6SM -SHRA OVC040
     FM220700 03007KT 6SM -RA SCT025 OVC040
     FM221100 03010KT 4SM -RA BR OVC025=



000
FTUS41 KPHI 211100
TAFMIV
TAF
KMIV 211132Z 2112/2212 22003KT P6SM FEW050 BKN150
      TEMPO 2112/2113 6SM BR
     FM211700 27005KT P6SM SCT050 BKN100
     FM212200 33005KT P6SM -SHRA BKN050
     FM220300 VRB03KT 6SM -SHRA OVC040
     FM220700 01005KT 6SM -RA SCT025 OVC040
     FM221100 01007KT 4SM -RA BR OVC025=



000
FTUS41 KPHI 211100
TAFPHL
TAF
KPHL 211132Z 2112/2218 22003KT P6SM FEW050 BKN150
     FM211600 27006KT P6SM VCSH BKN100
     FM212100 32006KT P6SM -SHRA BKN050
     FM220200 01003KT P6SM VCSH OVC040
     FM220700 03008KT 6SM -RA SCT025 OVC040
     FM221100 03010KT 4SM -RA BR OVC025=



000
FTUS41 KPHI 211100
TAFPNE
TAF
KPNE 211132Z 2112/2212 20003KT P6SM FEW050 BKN150
     FM211600 26005KT P6SM SCT050 BKN100
     FM212100 33005KT P6SM -SHRA BKN050
     FM220200 36003KT P6SM VCSH OVC040
     FM220700 03008KT 6SM -RA SCT025 OVC040
     FM221100 03010KT 4SM -RA BR OVC025=



000
FTUS41 KPHI 211100
TAFTTN
TAF
KTTN 211132Z 2112/2212 VRB03KT P6SM BKN100
     FM211500 26005KT P6SM SCT050 BKN100
     FM212100 36005KT P6SM -SHRA BKN050
     FM220200 03003KT P6SM VCSH OVC040
     FM220700 03008KT 6SM -RA SCT025 OVC040
     FM221100 05010KT 4SM -RA BR OVC025=



000
FTUS41 KPHI 211100
TAFILG
TAF
KILG 211132Z 2112/2212 23006KT P6SM FEW050 BKN150
     FM211600 27006KT P6SM SCT050 BKN100
     FM212100 33006KT P6SM -SHRA BKN050
     FM220300 36004KT 6SM -SHRA OVC040
     FM220700 01008KT 6SM -RA SCT025 OVC040
     FM221100 01010KT 4SM -RA BR OVC025=



000
FTUS41 KPHI 211100
TAFACY
TAF
KACY 211132Z 2112/2212 21005KT P6SM FEW050 BKN150
     FM211700 24005KT P6SM SCT050 BKN100
     FM212200 32005KT P6SM -SHRA BKN050
     FM220300 VRB03KT 6SM -SHRA OVC040
     FM220700 03007KT 6SM -RA SCT025 OVC040
     FM221100 03010KT 4SM -RA BR OVC025=



000
FTUS41 KPHI 211000 AAA
TAFMIV
TAF AMD
KMIV 211059Z 2111/2206 VRB03KT 6SM BR BKN100
      TEMPO 2111/2114 3SM BR
     FM211600 28005KT P6SM SCT050 BKN100
     FM212200 32005KT P6SM -SHRA BKN050
     FM220300 VRB03KT 6SM -SHRA OVC040=



000
FTUS41 KPHI 211000 AAA
TAFMIV
TAF AMD
KMIV 211059Z 2111/2206 VRB03KT 6SM BR BKN100
      TEMPO 2111/2114 3SM BR
     FM211600 28005KT P6SM SCT050 BKN100
     FM212200 32005KT P6SM -SHRA BKN050
     FM220300 VRB03KT 6SM -SHRA OVC040=



000
FTUS41 KPHI 210800 AAA
TAFPHL
TAF AMD
KPHL 210850Z 2109/2212 20003KT P6SM VCSH SCT060 BKN100
     FM211300 26006KT P6SM SCT050 BKN150
     FM212100 31006KT P6SM -SHRA BKN050
     FM220200 34003KT P6SM VCSH OVC040
     FM220800 01008KT 6SM -RA SCT025 OVC040=



000
FTUS41 KPHI 210800 AAA
TAFABE
TAF AMD
KABE 210809Z 2108/2206 VRB03KT P6SM -SHRA OVC060
     FM211300 VRB03KT P6SM VCSH BKN080
     FM211900 33005KT P6SM -SHRA BKN050
     FM220000 01003KT 6SM -SHRA OVC040=



000
FTUS41 KPHI 210800 AAA
TAFRDG
TAF AMD
KRDG 210803Z 2108/2206 20005KT P6SM -SHRA OVC060
     FM211300 30005KT P6SM VCSH BKN080
     FM211900 33005KT P6SM -SHRA BKN050
     FM220000 36003KT 6SM -SHRA OVC040=



000
FTUS41 KPHI 210500
TAFPHL
TAF
KPHL 210522Z 2106/2212 23006KT P6SM VCSH BKN100
     FM211500 26006KT P6SM SCT050 BKN100
     FM212100 31006KT P6SM -SHRA BKN050
     FM220200 34003KT P6SM VCSH OVC040
     FM220800 01008KT 6SM -RA SCT025 OVC040=



000
FTUS41 KPHI 210500
TAFTTN
TAF
KTTN 210522Z 2106/2206 VRB03KT P6SM BKN100
     FM211500 26005KT P6SM SCT050 BKN100
     FM212100 35005KT P6SM -SHRA BKN050
     FM220200 02003KT P6SM VCSH OVC040=



000
FTUS41 KPHI 210500
TAFRDG
TAF
KRDG 210522Z 2106/2206 20005KT P6SM -SHRA OVC060
      TEMPO 2106/2108 3SM SHRA BR OVC035
     FM211300 30005KT P6SM VCSH BKN080
     FM211900 33005KT P6SM -SHRA BKN050
     FM220000 36003KT 6SM -SHRA OVC040=



000
FTUS41 KPHI 210500
TAFILG
TAF
KILG 210522Z 2106/2206 21004KT P6SM BKN090
     FM211500 25006KT P6SM SCT050 BKN100
     FM212100 32006KT P6SM -SHRA BKN050
     FM220300 35004KT 6SM -SHRA OVC040=



000
FTUS41 KPHI 210500
TAFMIV
TAF
KMIV 210522Z 2106/2206 VRB03KT P6SM BKN100
     FM211600 28005KT P6SM SCT050 BKN100
     FM212200 32005KT P6SM -SHRA BKN050
     FM220300 VRB03KT 6SM -SHRA OVC040=



000
FTUS41 KPHI 210500
TAFACY
TAF
KACY 210522Z 2106/2206 20005KT P6SM BKN100
     FM211600 24005KT P6SM SCT050 BKN100
     FM212200 32005KT P6SM -SHRA BKN050
     FM220300 36005KT 6SM -SHRA OVC040=



000
FTUS41 KPHI 210500
TAFABE
TAF
KABE 210522Z 2106/2206 VRB03KT P6SM -SHRA OVC060
      TEMPO 2106/2109 4SM -SHRA BR OVC040
     FM211300 VRB03KT P6SM VCSH BKN080
     FM211900 33005KT P6SM -SHRA BKN050
     FM220000 01003KT 6SM -SHRA OVC040=



000
FTUS41 KPHI 210500
TAFPNE
TAF
KPNE 210522Z 2106/2206 20003KT P6SM BKN100
     FM211500 26005KT P6SM SCT050 BKN100
     FM212100 32005KT P6SM -SHRA BKN050
     FM220200 35003KT P6SM VCSH OVC040=



000
FTUS41 KPHI 202300
TAFRDG
TAF
KRDG 202335Z 2100/2124 VRB03KT P6SM BKN100
     FM210700 00000KT P6SM SCT040 OVC080
      TEMPO 2109/2113 5SM BR
     FM211600 VRB04KT P6SM BKN040=



000
FTUS41 KPHI 202300
TAFPHL
TAF
KPHL 202335Z 2100/2206 18005KT P6SM BKN150
     FM210400 24003KT P6SM SCT040 OVC080
     FM211500 19006KT P6SM BKN040
     FM212100 32004KT P6SM SCT040 BKN100=



000
FTUS41 KPHI 202300
TAFTTN
TAF
KTTN 202335Z 2100/2124 VRB03KT P6SM OVC100
     FM210800 VRB03KT P6SM SCT040 OVC080
     FM211500 22005KT P6SM BKN040
     FM211900 00000KT P6SM OVC100=



000
FTUS41 KPHI 202300
TAFILG
TAF
KILG 202335Z 2100/2124 19005KT P6SM BKN150
     FM210400 VRB03KT P6SM SCT040 OVC080
     FM211500 20006KT P6SM BKN040
     FM212100 33004KT P6SM OVC100=



000
FTUS41 KPHI 202300
TAFACY
TAF
KACY 202335Z 2100/2124 20010KT P6SM SCT150 BKN250
     FM210100 22006KT P6SM BKN150
     FM210400 VRB03KT P6SM FEW040 OVC100
     FM211500 18006KT P6SM BKN040
     FM211800 22005KT P6SM BKN250=



000
FTUS41 KPHI 202300
TAFMIV
TAF
KMIV 202335Z 2100/2124 22003KT P6SM BKN150
     FM210400 00000KT P6SM FEW040 OVC100
     FM211600 18004KT P6SM BKN040
     FM212200 26003KT P6SM OVC100=



000
FTUS41 KPHI 202300
TAFABE
TAF
KABE 202335Z 2100/2124 VRB03KT P6SM OVC100
     FM210700 00000KT P6SM SCT040 OVC080
      TEMPO 2109/2113 6SM BR
     FM211600 VRB04KT P6SM BKN040=



000
FTUS41 KPHI 202300
TAFPNE
TAF
KPNE 202335Z 2100/2124 16004KT P6SM BKN150
     FM210600 24003KT P6SM SCT040 OVC080
     FM211500 17004KT P6SM BKN040
     FM212000 36003KT P6SM OVC100=



000
FTUS41 KPHI 202000 AAA
TAFPHL
TAF AMD
KPHL 202059Z 2021/2124 18010KT P6SM SCT150 BKN200
     FM210000 21005KT P6SM BKN150
     FM210400 24003KT P6SM SCT040 OVC080
     FM211500 19006KT P6SM BKN040
     FM212100 26004KT P6SM SCT040 BKN100=



000
FTUS41 KPHI 201700
TAFMIV
TAF
KMIV 201740Z 2018/2118 21008KT P6SM SCT150 BKN250
     FM210100 VRB03KT P6SM BKN150
     FM210400 00000KT P6SM FEW040 OVC100
     FM211600 18004KT P6SM BKN040=



000
FTUS41 KPHI 201700
TAFRDG
TAF
KRDG 201740Z 2018/2118 20008KT P6SM SCT150 BKN250
     FM202300 VRB03KT P6SM BKN100
     FM210700 00000KT P6SM SCT040 OVC080
      TEMPO 2110/2113 5SM BR
     FM211600 VRB04KT P6SM BKN040=



000
FTUS41 KPHI 201700
TAFTTN
TAF
KTTN 201740Z 2018/2118 22008KT P6SM SCT150 BKN250
     FM210200 VRB03KT P6SM OVC100
     FM210800 VRB03KT P6SM SCT040 OVC080
     FM211500 19005KT P6SM BKN040=



000
FTUS41 KPHI 201700
TAFABE
TAF
KABE 201740Z 2018/2118 21008KT P6SM SCT150 BKN250
     FM202300 VRB03KT P6SM OVC100
     FM210700 00000KT P6SM SCT040 OVC080
      TEMPO 2110/2113 6SM BR
     FM211600 VRB04KT P6SM BKN040=



000
FTUS41 KPHI 201700
TAFPHL
TAF
KPHL 201740Z 2018/2124 20010KT P6SM SCT150 BKN200
     FM210000 21005KT P6SM BKN150
     FM210400 24003KT P6SM SCT040 OVC080
     FM211500 19006KT P6SM BKN040
     FM212100 26004KT P6SM SCT040 BKN100=



000
FTUS41 KPHI 201700
TAFACY
TAF
KACY 201740Z 2018/2118 19010KT P6SM SCT150 BKN250
     FM210100 22006KT P6SM BKN150
     FM210400 VRB03KT P6SM FEW040 OVC100
     FM211500 18006KT P6SM BKN040=



000
FTUS41 KPHI 201700
TAFILG
TAF
KILG 201740Z 2018/2118 18010KT P6SM SCT150 BKN250
     FM210000 19005KT P6SM BKN150
     FM210400 VRB03KT P6SM SCT040 OVC080
     FM211500 20006KT P6SM BKN040=



000
FTUS41 KPHI 201700
TAFPNE
TAF
KPNE 201740Z 2018/2118 22008KT P6SM SCT150 BKN250
     FM210200 VRB03KT P6SM OVC100
     FM210800 24003KT P6SM SCT040 OVC080
     FM211500 17004KT P6SM BKN040=



000
FTUS41 KPHI 201400 AAA
TAFPHL
TAF AMD
KPHL 201446Z 2015/2118 20010KT P6SM SCT150 BKN200
     FM210000 21005KT P6SM BKN150
     FM210400 21005KT P6SM OVC100
     FM210800 24003KT P6SM SCT040 OVC080=



000
FTUS41 KPHI 201100
TAFMIV
TAF
KMIV 201120Z 2012/2112 21003KT P6SM BKN250
     FM201600 21008KT P6SM SCT150 BKN250
     FM210100 VRB03KT P6SM BKN150
     FM210400 00000KT P6SM OVC100=



000
FTUS41 KPHI 201100
TAFACY
TAF
KACY 201120Z 2012/2112 19006KT P6SM BKN250
     FM201600 19010KT P6SM SCT150 BKN250
     FM210100 22006KT P6SM BKN150
     FM210400 VRB03KT P6SM OVC100=



000
FTUS41 KPHI 201100
TAFPHL
TAF
KPHL 201120Z 2012/2118 19003KT P6SM BKN250
     FM201500 22010KT P6SM SCT150 BKN250
     FM210000 21005KT P6SM BKN150
     FM210400 21005KT P6SM OVC100
     FM210800 24003KT P6SM SCT040 OVC080=



000
FTUS41 KPHI 201100
TAFTTN
TAF
KTTN 201120Z 2012/2112 24003KT P6SM BKN250
     FM201500 22008KT P6SM SCT150 BKN250
     FM210000 19005KT P6SM BKN150
     FM210400 VRB03KT P6SM OVC100
     FM210800 VRB03KT P6SM SCT040 OVC080=



000
FTUS41 KPHI 201100
TAFILG
TAF
KILG 201120Z 2012/2112 18003KT P6SM BKN250
     FM201500 18009KT P6SM SCT150 BKN250
     FM210000 19005KT P6SM BKN150
     FM210400 VRB03KT P6SM OVC100
     FM210800 VRB03KT P6SM SCT040 OVC080=



000
FTUS41 KPHI 201100
TAFABE
TAF
KABE 201120Z 2012/2112 VRB03KT P6SM BKN250
     FM201500 21008KT P6SM SCT150 BKN250
     FM202300 19003KT P6SM BKN150
     FM210300 VRB03KT P6SM FEW040 OVC100
     FM210700 00000KT P6SM SCT040 OVC080=



000
FTUS41 KPHI 201100
TAFPNE
TAF
KPNE 201120Z 2012/2112 VRB03KT P6SM BKN250
     FM201500 22008KT P6SM SCT150 BKN250
     FM210000 19005KT P6SM BKN150
     FM210400 VRB03KT P6SM OVC100
     FM210800 24003KT P6SM SCT040 OVC080=



000
FTUS41 KPHI 201100
TAFRDG
TAF
KRDG 201120Z 2012/2112 VRB03KT P6SM BKN250
     FM201500 19008KT P6SM SCT150 BKN250
     FM202300 VRB03KT P6SM BKN150
     FM210300 VRB03KT P6SM FEW040 OVC100
     FM210700 00000KT P6SM SCT040 OVC080=



    US Dept of Commerce
    National Oceanic and Atmospheric Administration
    National Weather Service
    1325 East West Highway
    Silver Spring, MD 20910
    Page Author: NWS Internet Services Team
Disclaimer
Information Quality
Credits
Glossary
Privacy Policy
Freedom of Information Act (FOIA)
About Us
Career Opportunities